createdAt,value
2022-12-05T00:01:27.536Z,22.27
2022-12-05T00:02:51.224Z,21.35
2022-12-05T00:04:15.186Z,22.13
2022-12-05T00:05:41.524Z,22.27
2022-12-05T00:07:05.230Z,21.38
2022-12-05T00:08:28.024Z,22.98
2022-12-05T00:09:51.825Z,22.50
2022-12-05T00:11:17.044Z,22.83
2022-12-05T00:12:40.935Z,21.50
2022-12-05T00:14:04.727Z,23.45
2022-12-05T00:15:28.417Z,21.52
2022-12-05T00:16:53.618Z,25.10
2022-12-05T00:18:17.345Z,22.42
2022-12-05T00:19:41.423Z,23.17
2022-12-05T00:21:04.565Z,21.25
2022-12-05T00:22:28.292Z,24.02
2022-12-05T00:23:51.755Z,21.15
2022-12-05T00:25:15.571Z,21.33
2022-12-05T00:26:39.976Z,21.42
2022-12-05T00:28:03.658Z,22.40
2022-12-05T00:29:27.285Z,20.50
2022-12-05T00:30:50.157Z,21.10
2022-12-05T00:32:15.447Z,22.08
2022-12-05T00:33:38.574Z,20.02
2022-12-05T00:35:02.650Z,21.60
2022-12-05T00:36:27.522Z,20.95
2022-12-05T00:37:51.223Z,21.27
2022-12-05T00:39:15.562Z,21.48
2022-12-05T00:40:39.257Z,21.27
2022-12-05T00:42:02.965Z,23.20
2022-12-05T00:43:25.640Z,23.95
2022-12-05T00:44:50.883Z,24.27
2022-12-05T00:46:18.228Z,23.08
2022-12-05T00:47:43.396Z,23.40
2022-12-05T00:49:07.223Z,21.95
2022-12-05T00:50:31.108Z,22.85
2022-12-05T00:51:54.844Z,22.70
2022-12-05T00:53:17.578Z,21.60
2022-12-05T00:54:41.316Z,22.33
2022-12-05T00:56:04.683Z,22.90
2022-12-05T00:57:28.536Z,20.52
2022-12-05T00:58:52.957Z,22.20
2022-12-05T01:00:17.618Z,22.02
2022-12-05T01:01:42.582Z,21.67
2022-12-05T01:03:07.770Z,20.30
2022-12-05T01:04:31.594Z,21.30
2022-12-05T01:05:54.426Z,20.92
2022-12-05T01:07:18.185Z,21.65
2022-12-05T01:08:40.992Z,19.90
2022-12-05T01:10:05.390Z,20.88
2022-12-05T01:11:28.753Z,21.15
2022-12-05T01:12:52.418Z,19.55
2022-12-05T01:14:17.814Z,19.25
2022-12-05T01:15:40.404Z,20.30
2022-12-05T01:17:04.167Z,19.95
2022-12-05T01:18:28.645Z,19.75
2022-12-05T01:19:52.354Z,19.38
2022-12-05T01:21:15.058Z,21.27
2022-12-05T01:22:38.764Z,22.08
2022-12-05T01:24:01.474Z,20.00
2022-12-05T01:25:25.162Z,20.30
2022-12-05T01:26:48.152Z,21.70
2022-12-05T01:28:11.884Z,20.50
2022-12-05T01:29:35.667Z,22.17
2022-12-05T01:30:58.291Z,21.95
2022-12-05T01:32:22.110Z,21.10
2022-12-05T01:33:46.366Z,22.75
2022-12-05T01:35:10.870Z,22.27
2022-12-05T01:36:34.449Z,23.63
2022-12-05T01:37:58.180Z,22.30
2022-12-05T01:39:21.881Z,19.77
2022-12-05T01:40:44.520Z,20.55
2022-12-05T01:42:08.299Z,19.65
2022-12-05T01:43:31.500Z,19.00
2022-12-05T01:45:08.058Z,18.88
2022-12-05T01:46:32.565Z,18.23
2022-12-05T01:47:57.125Z,19.23
2022-12-05T01:49:24.630Z,17.75
2022-12-05T01:50:48.119Z,19.38
2022-12-05T01:52:16.203Z,17.95
2022-12-05T01:53:40.274Z,18.80
2022-12-05T01:55:07.822Z,17.52
2022-12-05T01:56:33.074Z,17.55
2022-12-05T01:57:57.593Z,18.83
2022-12-05T01:59:23.363Z,16.13
2022-12-05T02:00:47.460Z,17.55
2022-12-05T02:02:10.358Z,17.92
2022-12-05T02:03:34.644Z,17.00
2022-12-05T02:05:04.233Z,16.50
2022-12-05T02:06:28.785Z,15.60
2022-12-05T02:07:52.855Z,17.48
2022-12-05T02:09:18.014Z,16.50
2022-12-05T02:10:43.617Z,16.48
2022-12-05T02:12:06.712Z,17.63
2022-12-05T02:13:39.974Z,16.10
2022-12-05T02:15:15.681Z,17.40
2022-12-05T02:16:49.122Z,17.98
2022-12-05T02:18:42.721Z,16.50
2022-12-05T02:20:14.809Z,17.40
2022-12-05T02:21:38.974Z,17.92
2022-12-05T02:23:33.132Z,17.15
2022-12-05T02:24:54.566Z,16.23
2022-12-05T02:26:27.164Z,18.63
2022-12-05T02:27:43.973Z,18.02
2022-12-05T02:29:20.774Z,20.13
2022-12-05T02:30:25.105Z,18.73
2022-12-05T02:31:35.310Z,18.30
2022-12-05T02:32:52.200Z,18.30
2022-12-05T02:34:03.845Z,18.00
2022-12-05T02:35:13.088Z,17.55
2022-12-05T02:36:19.575Z,18.40
2022-12-05T02:37:26.884Z,17.35
2022-12-05T02:38:33.083Z,18.20
2022-12-05T02:39:41.364Z,18.48
2022-12-05T02:40:50.398Z,17.83
2022-12-05T02:41:57.080Z,19.17
2022-12-05T02:43:02.546Z,19.17
2022-12-05T02:44:07.863Z,18.77
2022-12-05T02:45:12.923Z,17.98
2022-12-05T02:46:20.540Z,19.55
2022-12-05T02:47:26.914Z,20.83
2022-12-05T02:48:30.996Z,18.70
2022-12-05T02:49:36.562Z,19.13
2022-12-05T02:50:40.862Z,19.77
2022-12-05T02:51:44.962Z,20.60
2022-12-05T02:52:51.004Z,19.65
2022-12-05T02:53:55.617Z,19.33
2022-12-05T02:54:59.944Z,19.65
2022-12-05T02:56:03.683Z,20.08
2022-12-05T02:57:07.905Z,21.02
2022-12-05T02:58:15.123Z,19.17
2022-12-05T02:59:23.327Z,20.75
2022-12-05T03:00:26.525Z,18.73
2022-12-05T03:01:33.513Z,20.30
2022-12-05T03:02:39.374Z,19.33
2022-12-05T03:03:43.194Z,19.55
2022-12-05T03:04:46.105Z,20.27
2022-12-05T03:05:53.848Z,19.02
2022-12-05T03:07:00.063Z,16.83
2022-12-05T03:08:05.041Z,18.70
2022-12-05T03:09:10.402Z,18.15
2022-12-05T03:10:15.137Z,18.45
2022-12-05T03:11:17.925Z,17.95
2022-12-05T03:12:24.244Z,17.60
2022-12-05T03:13:28.391Z,18.02
2022-12-05T03:14:36.194Z,18.40
2022-12-05T03:15:41.324Z,18.65
2022-12-05T03:16:49.953Z,17.98
2022-12-05T03:17:54.814Z,17.95
2022-12-05T03:19:00.606Z,17.85
2022-12-05T03:20:06.472Z,16.75
2022-12-05T03:21:15.177Z,17.38
2022-12-05T03:22:22.924Z,18.20
2022-12-05T03:23:29.873Z,17.10
2022-12-05T03:24:35.242Z,17.60
2022-12-05T03:25:48.315Z,18.23
2022-12-05T03:26:56.961Z,18.08
2022-12-05T03:28:06.044Z,18.67
2022-12-05T03:29:23.304Z,18.35
2022-12-05T03:30:27.465Z,17.15
2022-12-05T03:31:36.123Z,17.63
2022-12-05T03:32:44.735Z,20.48
2022-12-05T03:33:51.345Z,17.10
2022-12-05T03:35:03.974Z,17.50
2022-12-05T03:36:12.314Z,17.80
2022-12-05T03:37:22.259Z,18.45
2022-12-05T03:38:27.444Z,19.52
2022-12-05T03:39:33.202Z,18.92
2022-12-05T03:40:40.244Z,18.17
2022-12-05T03:41:51.307Z,18.58
2022-12-05T03:42:56.855Z,18.80
2022-12-05T03:44:03.033Z,17.45
2022-12-05T03:45:09.932Z,19.40
2022-12-05T03:46:17.927Z,19.75
2022-12-05T03:47:24.264Z,19.60
2022-12-05T03:48:33.452Z,19.38
2022-12-05T03:49:38.564Z,18.20
2022-12-05T03:50:44.365Z,17.55
2022-12-05T03:51:52.675Z,17.63
2022-12-05T03:53:19.123Z,17.83
2022-12-05T03:54:25.207Z,15.90
2022-12-05T03:55:30.285Z,18.52
2022-12-05T03:56:37.495Z,19.98
2022-12-05T03:57:44.081Z,19.35
2022-12-05T03:58:51.291Z,19.85
2022-12-05T03:59:58.368Z,18.60
2022-12-05T04:01:03.279Z,21.33
2022-12-05T04:02:11.235Z,20.48
2022-12-05T04:03:18.023Z,20.25
2022-12-05T04:04:26.535Z,21.58
2022-12-05T04:05:34.044Z,22.00
2022-12-05T04:06:39.044Z,21.00
2022-12-05T04:07:43.741Z,20.63
2022-12-05T04:08:49.965Z,20.92
2022-12-05T04:09:57.937Z,20.00
2022-12-05T04:11:04.207Z,20.40
2022-12-05T04:12:11.873Z,21.02
2022-12-05T04:13:18.143Z,21.10
2022-12-05T04:14:27.995Z,19.08
2022-12-05T04:15:52.311Z,19.52
2022-12-05T04:17:03.744Z,18.25
2022-12-05T04:18:07.392Z,20.63
2022-12-05T04:19:15.927Z,18.15
2022-12-05T04:20:41.529Z,17.48
2022-12-05T04:21:47.944Z,18.42
2022-12-05T04:22:51.044Z,17.35
2022-12-05T04:24:08.573Z,17.02
2022-12-05T04:25:31.669Z,17.52
2022-12-05T04:26:36.304Z,17.67
2022-12-05T04:27:42.512Z,17.55
2022-12-05T04:28:52.673Z,16.65
2022-12-05T04:30:03.734Z,18.05
2022-12-05T04:31:09.547Z,17.58
2022-12-05T04:32:14.044Z,16.90
2022-12-05T04:33:19.962Z,16.25
2022-12-05T04:34:23.476Z,16.45
2022-12-05T04:35:31.850Z,16.90
2022-12-05T04:36:39.305Z,16.58
2022-12-05T04:37:46.975Z,16.33
2022-12-05T04:38:52.678Z,16.63
2022-12-05T04:40:00.271Z,16.38
2022-12-05T04:41:05.544Z,16.45
2022-12-05T04:42:10.315Z,18.50
2022-12-05T04:43:14.841Z,20.33
2022-12-05T04:44:19.685Z,19.10
2022-12-05T04:45:24.504Z,18.65
2022-12-05T04:46:27.477Z,19.98
2022-12-05T04:47:33.892Z,19.20
2022-12-05T04:48:39.224Z,18.83
2022-12-05T04:49:45.968Z,19.85
2022-12-05T04:50:55.864Z,19.45
2022-12-05T04:52:03.302Z,17.98
2022-12-05T04:53:07.511Z,17.58
2022-12-05T04:54:14.888Z,18.45
2022-12-05T04:55:25.966Z,18.58
2022-12-05T04:56:30.993Z,19.33
2022-12-05T04:57:38.266Z,18.42
2022-12-05T04:58:40.952Z,18.35
2022-12-05T04:59:44.766Z,17.63
2022-12-05T05:00:52.433Z,18.30
2022-12-05T05:01:59.846Z,16.58
2022-12-05T05:03:07.966Z,18.65
2022-12-05T05:04:15.784Z,18.20
2022-12-05T05:05:19.552Z,18.08
2022-12-05T05:06:24.678Z,18.38
2022-12-05T05:07:27.548Z,18.55
2022-12-05T05:08:31.553Z,19.08
2022-12-05T05:09:34.364Z,20.15
2022-12-05T05:10:41.525Z,19.90
2022-12-05T05:11:44.223Z,18.92
2022-12-05T05:12:47.903Z,19.13
2022-12-05T05:13:51.927Z,20.10
2022-12-05T05:14:54.652Z,20.35
2022-12-05T05:15:58.448Z,20.60
2022-12-05T05:17:01.557Z,19.92
2022-12-05T05:18:05.538Z,20.20
2022-12-05T05:19:09.542Z,19.08
2022-12-05T05:20:25.624Z,20.85
2022-12-05T05:21:31.832Z,19.33
2022-12-05T05:22:35.595Z,21.00
2022-12-05T05:23:38.285Z,21.20
2022-12-05T05:24:42.044Z,20.42
2022-12-05T05:25:44.743Z,19.65
2022-12-05T05:26:53.888Z,20.67
2022-12-05T05:27:59.656Z,19.85
2022-12-05T05:29:03.616Z,19.55
2022-12-05T05:30:07.622Z,20.00
2022-12-05T05:31:11.585Z,21.60
2022-12-05T05:32:14.413Z,22.60
2022-12-05T05:33:18.294Z,19.98
2022-12-05T05:34:20.966Z,19.52
2022-12-05T05:35:24.904Z,21.45
2022-12-05T05:36:29.583Z,20.05
2022-12-05T05:37:33.424Z,19.75
2022-12-05T05:38:37.464Z,19.70
2022-12-05T05:39:41.186Z,19.30
2022-12-05T05:40:44.947Z,20.70
2022-12-05T05:41:48.747Z,20.55
2022-12-05T05:42:51.473Z,17.83
2022-12-05T05:43:55.455Z,19.60
2022-12-05T05:44:58.214Z,20.60
2022-12-05T05:46:05.259Z,19.88
2022-12-05T05:47:08.151Z,19.15
2022-12-05T05:48:11.884Z,20.00
2022-12-05T05:49:14.527Z,20.77
2022-12-05T05:50:21.762Z,19.52
2022-12-05T05:51:28.121Z,19.75
2022-12-05T05:52:34.981Z,18.52
2022-12-05T05:53:39.109Z,19.30
2022-12-05T05:54:42.154Z,18.42
2022-12-05T05:55:46.004Z,18.00
2022-12-05T05:56:48.714Z,18.67
2022-12-05T05:57:52.425Z,19.25
2022-12-05T05:58:56.907Z,18.77
2022-12-05T06:00:01.046Z,18.45
2022-12-05T06:01:05.056Z,18.38
2022-12-05T06:02:08.873Z,19.23
2022-12-05T06:03:12.894Z,19.13
2022-12-05T06:04:15.912Z,19.95
2022-12-05T06:05:20.032Z,19.83
2022-12-05T06:06:23.563Z,19.73
2022-12-05T06:07:27.465Z,19.10
2022-12-05T06:08:32.334Z,20.33
2022-12-05T06:09:36.234Z,19.42
2022-12-05T06:10:40.294Z,19.80
2022-12-05T06:11:43.482Z,18.10
2022-12-05T06:12:47.584Z,18.58
2022-12-05T06:13:51.382Z,19.25
2022-12-05T06:14:55.145Z,19.48
2022-12-05T06:15:57.965Z,19.10
2022-12-05T06:17:01.724Z,19.15
2022-12-05T06:18:04.567Z,19.85
2022-12-05T06:19:08.321Z,19.48
2022-12-05T06:20:11.679Z,20.55
2022-12-05T06:21:16.490Z,19.92
2022-12-05T06:22:19.422Z,19.00
2022-12-05T06:23:23.363Z,19.88
2022-12-05T06:24:27.533Z,19.50
2022-12-05T06:25:31.295Z,19.27
2022-12-05T06:26:33.942Z,19.15
2022-12-05T06:27:37.904Z,19.00
2022-12-05T06:28:40.894Z,19.90
2022-12-05T06:29:44.663Z,19.40
2022-12-05T06:30:47.824Z,18.65
2022-12-05T06:31:51.591Z,19.35
2022-12-05T06:32:54.449Z,19.52
2022-12-05T06:34:01.763Z,19.40
2022-12-05T06:35:15.384Z,18.33
2022-12-05T06:36:20.554Z,17.48
2022-12-05T06:37:23.219Z,20.33
2022-12-05T06:38:26.973Z,20.63
2022-12-05T06:39:32.686Z,21.13
2022-12-05T06:40:35.595Z,22.15
2022-12-05T06:41:39.437Z,21.40
2022-12-05T06:42:42.108Z,21.45
2022-12-05T06:43:45.858Z,21.95
2022-12-05T06:44:48.742Z,20.65
2022-12-05T06:45:52.708Z,21.60
2022-12-05T06:46:55.825Z,22.23
2022-12-05T06:47:59.516Z,21.00
2022-12-05T06:49:02.463Z,21.90
2022-12-05T06:50:07.279Z,24.33
2022-12-05T06:51:10.717Z,22.13
2022-12-05T06:52:14.494Z,21.88
2022-12-05T06:53:17.241Z,23.05
2022-12-05T06:54:21.159Z,23.73
2022-12-05T06:55:25.283Z,24.02
2022-12-05T06:56:29.953Z,22.27
2022-12-05T06:57:32.612Z,23.48
2022-12-05T06:58:36.338Z,24.92
2022-12-05T06:59:40.142Z,23.00
2022-12-05T07:01:15.645Z,23.08
2022-12-05T07:02:18.570Z,22.85
2022-12-05T07:03:21.325Z,22.80
2022-12-05T07:04:25.314Z,24.13
2022-12-05T07:05:28.015Z,27.83
2022-12-05T07:06:31.733Z,26.23
2022-12-05T07:07:34.579Z,25.58
2022-12-05T07:08:38.335Z,24.85
2022-12-05T07:09:48.620Z,25.08
2022-12-05T07:10:53.283Z,23.55
2022-12-05T07:11:57.076Z,23.48
2022-12-05T07:12:59.686Z,25.10
2022-12-05T07:14:10.426Z,24.15
2022-12-05T07:15:22.954Z,22.92
2022-12-05T07:16:25.808Z,25.98
2022-12-05T07:17:29.515Z,23.73
2022-12-05T07:18:32.248Z,23.65
2022-12-05T07:19:36.115Z,25.23
2022-12-05T07:21:03.992Z,25.13
2022-12-05T07:22:02.507Z,22.67
2022-12-05T07:23:05.174Z,23.92
2022-12-05T07:24:09.076Z,23.48
2022-12-05T07:25:11.768Z,24.17
2022-12-05T07:26:19.012Z,23.67
2022-12-05T07:27:26.892Z,23.88
2022-12-05T07:28:31.637Z,22.80
2022-12-05T07:29:34.335Z,22.85
2022-12-05T07:30:38.175Z,22.70
2022-12-05T07:31:41.988Z,23.13
2022-12-05T07:32:45.745Z,22.30
2022-12-05T07:33:48.641Z,21.95
2022-12-05T07:34:55.221Z,22.05
2022-12-05T07:36:02.013Z,20.63
2022-12-05T07:37:05.776Z,22.05
2022-12-05T07:38:08.437Z,22.73
2022-12-05T07:39:12.191Z,22.48
2022-12-05T07:40:15.530Z,20.02
2022-12-05T07:41:22.193Z,21.75
2022-12-05T07:42:24.972Z,20.45
2022-12-05T07:43:28.674Z,20.50
2022-12-05T07:44:31.633Z,20.55
2022-12-05T07:45:36.077Z,21.85
2022-12-05T07:46:38.972Z,19.88
2022-12-05T07:47:42.854Z,19.50
2022-12-05T07:48:45.865Z,20.67
2022-12-05T07:49:49.660Z,20.23
2022-12-05T07:50:52.331Z,20.10
2022-12-05T07:51:56.004Z,18.88
2022-12-05T07:52:58.652Z,18.15
2022-12-05T07:54:02.494Z,19.05
2022-12-05T07:55:07.441Z,19.55
2022-12-05T07:56:12.044Z,19.05
2022-12-05T07:57:16.170Z,20.73
2022-12-05T07:58:20.183Z,19.63
2022-12-05T07:59:22.804Z,17.75
2022-12-05T08:00:26.830Z,18.52
2022-12-05T08:01:30.446Z,19.17
2022-12-05T08:02:37.715Z,17.52
2022-12-05T08:03:44.743Z,17.70
2022-12-05T08:04:47.642Z,18.08
2022-12-05T08:05:51.506Z,18.73
2022-12-05T08:06:54.195Z,18.80
2022-12-05T08:07:57.966Z,17.67
2022-12-05T08:09:00.755Z,17.33
2022-12-05T08:10:04.890Z,17.23
2022-12-05T08:11:09.063Z,16.98
2022-12-05T08:12:13.530Z,17.15
2022-12-05T08:13:18.465Z,18.23
2022-12-05T08:14:22.267Z,15.45
2022-12-05T08:15:25.955Z,17.23
2022-12-05T08:16:30.743Z,16.25
2022-12-05T08:17:34.133Z,16.35
2022-12-05T08:18:38.122Z,17.35
2022-12-05T08:19:41.853Z,17.33
2022-12-05T08:20:44.579Z,17.58
2022-12-05T08:21:48.863Z,16.73
2022-12-05T08:22:55.056Z,16.88
2022-12-05T08:23:58.606Z,17.33
2022-12-05T08:25:03.018Z,17.33
2022-12-05T08:26:11.353Z,16.63
2022-12-05T08:27:14.123Z,18.02
2022-12-05T08:28:19.866Z,17.23
2022-12-05T08:29:24.946Z,17.75
2022-12-05T08:30:27.908Z,17.48
2022-12-05T08:31:33.334Z,16.65
2022-12-05T08:32:37.133Z,17.25
2022-12-05T08:33:40.033Z,17.25
2022-12-05T08:34:43.764Z,17.73
2022-12-05T08:35:46.495Z,17.35
2022-12-05T08:36:50.676Z,17.38
2022-12-05T08:37:53.391Z,16.70
2022-12-05T08:38:58.276Z,17.17
2022-12-05T08:40:00.986Z,15.80
2022-12-05T08:41:05.126Z,16.40
2022-12-05T08:42:08.862Z,16.10
2022-12-05T08:43:12.564Z,15.48
2022-12-05T08:44:17.315Z,16.15
2022-12-05T08:45:21.097Z,14.70
2022-12-05T08:46:23.999Z,16.50
2022-12-05T08:47:32.323Z,15.52
2022-12-05T08:48:37.244Z,16.25
2022-12-05T08:49:40.974Z,15.35
2022-12-05T08:50:43.746Z,15.63
2022-12-05T08:51:47.697Z,15.93
2022-12-05T08:52:51.623Z,15.13
2022-12-05T08:53:56.611Z,15.40
2022-12-05T08:55:00.666Z,14.43
2022-12-05T08:56:05.122Z,14.57
2022-12-05T08:57:08.853Z,14.13
2022-12-05T08:58:11.775Z,13.95
2022-12-05T08:59:15.609Z,13.70
2022-12-05T09:00:21.826Z,14.13
2022-12-05T09:01:30.559Z,13.50
2022-12-05T09:02:35.233Z,13.05
2022-12-05T09:03:40.101Z,13.13
2022-12-05T09:04:50.879Z,12.10
2022-12-05T09:05:56.294Z,12.30
2022-12-05T09:07:04.363Z,12.32
2022-12-05T09:08:08.944Z,12.82
2022-12-05T09:09:13.187Z,11.93
2022-12-05T09:10:17.161Z,11.88
2022-12-05T09:11:21.795Z,13.25
2022-12-05T09:12:25.543Z,12.73
2022-12-05T09:13:28.262Z,12.85
2022-12-05T09:14:33.207Z,12.63
2022-12-05T09:15:39.093Z,12.30
2022-12-05T09:16:53.337Z,12.95
2022-12-05T09:17:56.074Z,13.15
2022-12-05T09:18:59.875Z,12.43
2022-12-05T09:20:05.345Z,12.93
2022-12-05T09:21:08.593Z,11.60
2022-12-05T09:22:14.244Z,12.95
2022-12-05T09:23:17.048Z,13.00
2022-12-05T09:24:21.097Z,12.50
2022-12-05T09:25:23.832Z,11.50
2022-12-05T09:26:28.685Z,12.32
2022-12-05T09:27:33.758Z,12.52
2022-12-05T09:28:36.764Z,12.90
2022-12-05T09:29:40.763Z,13.32
2022-12-05T09:30:44.951Z,12.80
2022-12-05T09:31:51.796Z,13.68
2022-12-05T09:32:55.591Z,13.10
2022-12-05T09:33:59.512Z,11.90
2022-12-05T09:35:03.267Z,12.30
2022-12-05T09:36:07.044Z,12.98
2022-12-05T09:37:37.339Z,11.38
2022-12-05T09:38:35.494Z,10.52
2022-12-05T09:39:39.254Z,11.68
2022-12-05T09:40:43.288Z,10.63
2022-12-05T09:42:18.523Z,12.65
2022-12-05T09:43:26.053Z,12.48
2022-12-05T09:44:37.902Z,11.98
2022-12-05T09:45:47.771Z,11.88
2022-12-05T09:46:54.188Z,12.10
2022-12-05T09:48:01.564Z,11.68
2022-12-05T09:49:06.022Z,12.40
2022-12-05T09:50:16.212Z,12.15
2022-12-05T09:51:20.003Z,12.10
2022-12-05T09:52:26.497Z,12.43
2022-12-05T09:53:32.248Z,12.63
2022-12-05T09:54:34.994Z,11.95
2022-12-05T09:55:46.136Z,12.68
2022-12-05T09:56:51.606Z,12.40
2022-12-05T09:57:58.462Z,12.30
2022-12-05T09:59:02.256Z,12.85
2022-12-05T10:00:07.144Z,11.80
2022-12-05T10:01:31.092Z,11.60
2022-12-05T10:02:45.747Z,12.88
2022-12-05T10:04:03.215Z,13.20
2022-12-05T10:05:09.915Z,11.65
2022-12-05T10:06:17.498Z,12.45
2022-12-05T10:07:26.165Z,12.10
2022-12-05T10:08:35.214Z,13.02
2022-12-05T10:09:50.366Z,12.68
2022-12-05T10:11:01.412Z,12.18
2022-12-05T10:12:11.112Z,12.30
2022-12-05T10:13:23.776Z,12.80
2022-12-05T10:14:32.631Z,13.52
2022-12-05T10:15:38.551Z,12.13
2022-12-05T10:16:48.405Z,14.13
2022-12-05T10:17:57.872Z,13.15
2022-12-05T10:19:05.749Z,12.77
2022-12-05T10:20:14.563Z,12.93
2022-12-05T10:21:21.725Z,13.05
2022-12-05T10:22:29.323Z,13.77
2022-12-05T10:23:56.963Z,13.38
2022-12-05T10:25:02.973Z,13.80
2022-12-05T10:26:09.687Z,13.25
2022-12-05T10:27:18.347Z,14.73
2022-12-05T10:28:30.644Z,13.75
2022-12-05T10:29:37.543Z,13.60
2022-12-05T10:30:42.609Z,13.98
2022-12-05T10:31:49.706Z,12.98
2022-12-05T10:32:53.992Z,13.75
2022-12-05T10:34:07.974Z,12.18
2022-12-05T10:35:18.034Z,13.68
2022-12-05T10:36:20.743Z,13.50
2022-12-05T10:37:25.602Z,14.30
2022-12-05T10:38:31.225Z,12.57
2022-12-05T10:39:34.010Z,13.82
2022-12-05T10:40:39.821Z,12.63
2022-12-05T10:41:43.535Z,11.73
2022-12-05T10:42:46.666Z,14.43
2022-12-05T10:43:51.998Z,12.20
2022-12-05T10:44:58.988Z,12.57
2022-12-05T10:46:03.869Z,12.88
2022-12-05T10:47:10.333Z,13.48
2022-12-05T10:48:15.671Z,13.13
2022-12-05T10:49:20.423Z,13.40
2022-12-05T10:50:26.623Z,12.35
2022-12-05T10:51:37.010Z,13.57
2022-12-05T10:52:40.081Z,12.75
2022-12-05T10:53:45.294Z,13.38
2022-12-05T10:54:51.354Z,13.30
2022-12-05T10:56:28.612Z,12.35
2022-12-05T10:57:26.294Z,12.98
2022-12-05T10:58:30.983Z,13.55
2022-12-05T10:59:46.462Z,12.32
2022-12-05T11:00:55.375Z,13.10
2022-12-05T11:02:01.093Z,11.73
2022-12-05T11:03:06.064Z,12.52
2022-12-05T11:04:22.811Z,11.95
2022-12-05T11:05:31.089Z,12.68
2022-12-05T11:06:33.863Z,11.57
2022-12-05T11:07:48.496Z,12.32
2022-12-05T11:09:10.055Z,11.38
2022-12-05T11:10:26.442Z,11.95
2022-12-05T11:11:33.539Z,10.45
2022-12-05T11:12:39.205Z,12.43
2022-12-05T11:13:53.354Z,11.25
2022-12-05T11:15:13.176Z,11.70
2022-12-05T11:16:25.318Z,11.75
2022-12-05T11:17:32.934Z,11.77
2022-12-05T11:18:38.034Z,11.18
2022-12-05T11:19:41.781Z,11.38
2022-12-05T11:20:44.696Z,12.68
2022-12-05T11:21:49.459Z,11.93
2022-12-05T11:22:54.225Z,11.50
2022-12-05T11:23:59.256Z,11.15
2022-12-05T11:25:02.325Z,11.02
2022-12-05T11:26:06.365Z,20.52
2022-12-05T11:27:30.132Z,63.13
2022-12-05T11:28:38.575Z,66.00
2022-12-05T11:29:42.573Z,15.95
2022-12-05T11:30:57.992Z,15.73
2022-12-05T11:32:02.414Z,12.75
2022-12-05T11:33:14.164Z,11.43
2022-12-05T11:34:22.806Z,10.80
2022-12-05T11:35:28.804Z,10.45
2022-12-05T11:36:40.015Z,18.77
2022-12-05T11:37:46.812Z,10.98
2022-12-05T11:38:50.725Z,10.98
2022-12-05T11:39:53.691Z,12.15
2022-12-05T11:41:06.191Z,20.05
2022-12-05T11:42:30.964Z,19.33
2022-12-05T11:43:54.021Z,12.90
2022-12-05T11:45:07.574Z,10.23
2022-12-05T11:46:22.292Z,11.00
2022-12-05T11:47:41.994Z,10.38
2022-12-05T11:48:56.535Z,11.32
2022-12-05T11:50:20.312Z,10.43
2022-12-05T11:51:34.415Z,10.57
2022-12-05T11:52:48.191Z,11.77
2022-12-05T11:54:11.396Z,12.10
2022-12-05T11:55:17.122Z,10.20
2022-12-05T11:56:33.662Z,10.65
2022-12-05T11:57:54.875Z,10.60
2022-12-05T11:59:12.365Z,10.23
2022-12-05T12:00:25.112Z,11.15
2022-12-05T12:01:38.177Z,10.50
2022-12-05T12:02:54.361Z,9.57
2022-12-05T12:04:42.399Z,10.60
2022-12-05T12:05:55.915Z,9.32
2022-12-05T12:07:08.945Z,9.57
2022-12-05T12:08:20.139Z,9.63
2022-12-05T12:09:32.123Z,9.68
2022-12-05T12:10:42.286Z,9.48
2022-12-05T12:11:50.804Z,9.75
2022-12-05T12:13:03.005Z,11.32
2022-12-05T12:14:15.736Z,10.77
2022-12-05T12:15:34.706Z,10.70
2022-12-05T12:16:45.525Z,11.50
2022-12-05T12:17:55.421Z,10.45
2022-12-05T12:19:34.063Z,11.32
2022-12-05T12:20:49.540Z,12.60
2022-12-05T12:22:08.955Z,11.88
2022-12-05T12:23:33.805Z,13.40
2022-12-05T12:24:50.874Z,11.85
2022-12-05T12:26:04.934Z,13.13
2022-12-05T12:27:17.297Z,13.82
2022-12-05T12:28:33.350Z,12.82
2022-12-05T12:29:47.983Z,12.82
2022-12-05T12:31:04.323Z,13.40
2022-12-05T12:32:18.013Z,13.15
2022-12-05T12:33:31.144Z,15.55
2022-12-05T12:34:43.870Z,13.70
2022-12-05T12:35:52.951Z,16.95
2022-12-05T12:37:00.545Z,14.52
2022-12-05T12:38:26.894Z,14.20
2022-12-05T12:39:37.833Z,15.02
2022-12-05T12:40:48.303Z,15.13
2022-12-05T12:42:02.756Z,23.13
2022-12-05T12:43:25.257Z,22.90
2022-12-05T12:45:10.907Z,19.25
2022-12-05T12:46:24.901Z,17.55
2022-12-05T12:47:40.310Z,19.98
2022-12-05T12:49:00.620Z,23.27
2022-12-05T12:50:09.035Z,19.60
2022-12-05T12:51:15.690Z,16.33
2022-12-05T12:52:22.627Z,17.45
2022-12-05T12:53:43.534Z,19.73
2022-12-05T12:55:08.758Z,17.90
2022-12-05T12:56:22.349Z,24.48
2022-12-05T12:57:30.373Z,17.75
2022-12-05T12:58:46.135Z,18.02
2022-12-05T12:59:59.011Z,17.55
2022-12-05T13:01:08.244Z,25.08
2022-12-05T13:02:16.585Z,22.58
2022-12-05T13:03:23.688Z,19.38
2022-12-05T13:04:31.515Z,19.25
2022-12-05T13:05:36.444Z,19.30
2022-12-05T13:06:45.879Z,18.67
2022-12-05T13:07:51.957Z,17.25
2022-12-05T13:08:58.803Z,27.73
2022-12-05T13:10:06.850Z,26.58
2022-12-05T13:11:12.544Z,39.03
2022-12-05T13:12:19.274Z,20.13
2022-12-05T13:13:24.343Z,20.55
2022-12-05T13:14:28.923Z,21.10
2022-12-05T13:15:37.380Z,26.98
2022-12-05T13:16:46.125Z,23.40
2022-12-05T13:17:50.705Z,22.55
2022-12-05T13:18:54.772Z,19.48
2022-12-05T13:19:58.952Z,17.40
2022-12-05T13:21:05.123Z,18.13
2022-12-05T13:22:10.721Z,17.67
2022-12-05T13:23:16.408Z,17.27
2022-12-05T13:24:21.412Z,18.23
2022-12-05T13:25:28.818Z,16.73
2022-12-05T13:26:34.499Z,18.90
2022-12-05T13:27:38.475Z,19.75
2022-12-05T13:28:52.124Z,17.35
2022-12-05T13:29:57.802Z,18.80
2022-12-05T13:31:02.784Z,18.58
2022-12-05T13:32:08.854Z,18.83
2022-12-05T13:33:25.590Z,19.38
2022-12-05T13:34:47.733Z,20.77
2022-12-05T13:36:12.882Z,19.95
2022-12-05T13:37:41.219Z,22.00
2022-12-05T13:39:02.345Z,23.38
2022-12-05T13:40:25.189Z,23.00
2022-12-05T13:41:58.934Z,22.73
2022-12-05T13:43:03.845Z,22.60
2022-12-05T13:44:12.679Z,23.38
2022-12-05T13:45:20.176Z,23.50
2022-12-05T13:46:29.923Z,23.65
2022-12-05T13:47:35.471Z,25.15
2022-12-05T13:48:41.204Z,24.52
2022-12-05T13:49:49.173Z,26.23
2022-12-05T13:50:56.552Z,25.27
2022-12-05T13:52:07.077Z,25.73
2022-12-05T13:53:26.684Z,26.25
2022-12-05T13:54:31.403Z,25.77
2022-12-05T13:55:36.840Z,25.15
2022-12-05T13:56:54.384Z,26.15
2022-12-05T13:57:59.202Z,26.83
2022-12-05T13:59:02.924Z,25.77
2022-12-05T14:00:23.346Z,24.80
2022-12-05T14:01:55.688Z,26.13
2022-12-05T14:03:05.581Z,25.88
2022-12-05T14:04:24.564Z,26.40
2022-12-05T14:05:48.910Z,25.38
2022-12-05T14:06:58.603Z,27.45
2022-12-05T14:08:03.979Z,25.80
2022-12-05T14:09:30.655Z,25.70
2022-12-05T14:11:09.220Z,26.90
2022-12-05T14:12:39.597Z,29.13
2022-12-05T14:13:45.456Z,25.75
2022-12-05T14:15:04.177Z,26.10
2022-12-05T14:16:50.408Z,25.77
2022-12-05T14:17:59.215Z,24.40
2022-12-05T14:19:08.183Z,25.88
2022-12-05T14:20:25.730Z,25.77
2022-12-05T14:21:40.037Z,26.33
2022-12-05T14:23:12.662Z,41.63
2022-12-05T14:24:24.534Z,28.23
2022-12-05T14:25:37.916Z,27.27
2022-12-05T14:26:56.000Z,26.00
2022-12-05T14:28:04.590Z,27.85
2022-12-05T14:29:21.964Z,27.77
2022-12-05T14:30:30.520Z,25.58
2022-12-05T14:31:41.664Z,24.88
2022-12-05T14:32:45.609Z,26.58
2022-12-05T14:34:06.064Z,25.45
2022-12-05T14:35:13.955Z,25.40
2022-12-05T14:36:31.076Z,25.45
2022-12-05T14:37:38.216Z,24.08
2022-12-05T14:38:42.086Z,24.10
2022-12-05T14:39:49.184Z,24.23
2022-12-05T14:40:53.095Z,25.27
2022-12-05T14:41:58.146Z,23.85
2022-12-05T14:43:03.775Z,24.52
2022-12-05T14:44:17.996Z,23.60
2022-12-05T14:45:33.653Z,24.48
2022-12-05T14:46:37.526Z,22.33
2022-12-05T14:47:41.453Z,23.25
2022-12-05T14:48:48.429Z,24.13
2022-12-05T14:49:55.065Z,23.35
2022-12-05T14:50:59.517Z,23.23
2022-12-05T14:52:10.735Z,27.00
2022-12-05T14:53:42.383Z,27.00
2022-12-05T14:54:47.003Z,24.75
2022-12-05T14:55:54.603Z,24.10
2022-12-05T14:57:05.311Z,24.98
2022-12-05T14:58:17.875Z,24.98
2022-12-05T14:59:26.426Z,24.83
2022-12-05T15:00:30.405Z,24.58
2022-12-05T15:01:36.830Z,25.23
2022-12-05T15:02:45.810Z,25.05
2022-12-05T15:04:11.906Z,24.63
2022-12-05T15:05:24.153Z,23.33
2022-12-05T15:06:28.437Z,24.48